Time;durP1;ratioP1;P1;durP2;ratioP2;P2;SDS_P1;SDS_P2;PMS_P1;PMS_P2;Temp;Humidity;BMP_temperature;BMP_pressure;BME280_temperature;BME280_humidity;BME280_pressure;Samples;Min_cycle;Max_cycle;Signal;HPM_P1;HPM_P2
2021/01/29 00:00:42;;;;;;;14.40;9.07;;;5.80;99.90;;;;;;5115936;28;20441;-77
2021/01/29 00:03:13;;;;;;;13.83;10.43;;;5.80;99.90;;;;;;5108394;28;20455;-77
2021/01/29 00:05:48;;;;;;;11.63;8.30;;;5.70;99.90;;;;;;5112158;28;20451;-78
2021/01/29 00:08:15;;;;;;;12.33;8.20;;;5.80;99.90;;;;;;5114885;28;20945;-78
2021/01/29 00:10:41;;;;;;;11.50;8.30;;;5.80;99.90;;;;;;5113494;28;20449;-78
2021/01/29 00:13:10;;;;;;;15.43;10.30;;;5.90;99.90;;;;;;5113564;28;20457;-76
2021/01/29 00:15:45;;;;;;;10.07;8.23;;;5.80;99.90;;;;;;5109741;28;20448;-76
2021/01/29 00:18:12;;;;;;;14.83;10.63;;;5.90;99.90;;;;;;5115542;28;20810;-78
2021/01/29 00:20:39;;;;;;;12.43;10.00;;;5.90;99.90;;;;;;5115674;28;20445;-77
2021/01/29 00:23:05;;;;;;;14.90;9.30;;;6.00;99.90;;;;;;5115328;28;20496;-77
2021/01/29 00:25:33;;;;;;;12.10;8.77;;;6.10;99.90;;;;;;5115601;28;20456;-78
2021/01/29 00:28:01;;;;;;;15.23;9.37;;;6.10;99.90;;;;;;5115637;28;20476;-78
2021/01/29 00:30:29;;;;;;;13.07;9.10;;;6.10;99.90;;;;;;5115455;28;20486;-78
2021/01/29 00:32:57;;;;;;;15.67;11.30;;;6.10;99.90;;;;;;5115165;28;20459;-78
2021/01/29 00:35:27;;;;;;;12.60;9.07;;;6.20;99.90;;;;;;5114847;28;20784;-78
2021/01/29 00:37:53;;;;;;;16.43;8.33;;;6.20;99.90;;;;;;5115041;28;20457;-78
2021/01/29 00:40:19;;;;;;;11.30;8.67;;;6.30;99.90;;;;;;5115361;28;20497;-78
2021/01/29 00:42:46;;;;;;;11.23;8.70;;;6.30;99.90;;;;;;5115513;28;20451;-81
2021/01/29 00:45:16;;;;;;;11.97;8.63;;;6.40;99.90;;;;;;5114903;28;20479;-78
2021/01/29 00:47:42;;;;;;;10.80;8.90;;;6.40;99.90;;;;;;5115221;28;20481;-78
2021/01/29 00:50:10;;;;;;;11.90;7.67;;;6.40;99.90;;;;;;5115500;28;20505;-77
2021/01/29 00:52:37;;;;;;;14.10;8.37;;;6.50;99.90;;;;;;5115024;28;20442;-78
2021/01/29 00:55:04;;;;;;;13.37;9.03;;;6.50;99.90;;;;;;5115129;28;21000;-78
2021/01/29 00:57:31;;;;;;;11.63;8.50;;;6.50;99.90;;;;;;5115169;28;20477;-78
2021/01/29 00:59:57;;;;;;;9.03;7.53;;;6.60;99.90;;;;;;5115243;28;20439;-77
2021/01/29 01:02:23;;;;;;;13.03;9.30;;;6.60;99.90;;;;;;5115590;28;20560;-77
2021/01/29 01:04:50;;;;;;;13.30;8.07;;;6.60;99.90;;;;;;5115154;28;20445;-77
2021/01/29 01:07:17;;;;;;;12.40;8.53;;;6.70;99.90;;;;;;5115109;28;20499;-77
2021/01/29 01:09:45;;;;;;;11.60;8.60;;;6.70;99.90;;;;;;5116484;28;20528;-77
2021/01/29 01:12:11;;;;;;;14.63;9.00;;;6.70;99.90;;;;;;5115460;28;20528;-76
2021/01/29 01:14:37;;;;;;;13.00;9.50;;;6.70;99.90;;;;;;5115131;28;20446;-76
2021/01/29 01:17:04;;;;;;;13.97;9.90;;;6.70;99.90;;;;;;5114673;28;20929;-77
2021/01/29 01:19:31;;;;;;;12.30;8.60;;;6.80;99.90;;;;;;5114853;28;20468;-78
2021/01/29 01:21:57;;;;;;;14.20;10.10;;;6.80;99.90;;;;;;5114806;28;20502;-77
2021/01/29 01:24:25;;;;;;;14.00;9.37;;;6.80;99.90;;;;;;5115201;28;20445;-77
2021/01/29 01:26:51;;;;;;;13.70;9.90;;;6.80;99.90;;;;;;5114399;28;20534;-78
2021/01/29 01:29:17;;;;;;;15.10;10.33;;;6.80;99.90;;;;;;5114922;28;20445;-77
2021/01/29 01:31:43;;;;;;;11.97;8.93;;;6.80;99.90;;;;;;5114605;28;20457;-77
2021/01/29 01:34:10;;;;;;;12.83;9.57;;;6.90;99.90;;;;;;5115237;28;20817;-77
2021/01/29 01:36:36;;;;;;;15.53;10.53;;;6.90;99.90;;;;;;5114873;28;20533;-77
2021/01/29 01:39:03;;;;;;;23.87;10.93;;;6.90;99.90;;;;;;5114682;28;20856;-77
2021/01/29 01:41:30;;;;;;;21.97;12.03;;;7.00;99.90;;;;;;5114703;28;20524;-78
2021/01/29 01:43:59;;;;;;;11.93;9.60;;;7.00;99.90;;;;;;5114918;28;20525;-77
2021/01/29 01:46:26;;;;;;;21.60;12.33;;;7.00;99.90;;;;;;5115910;28;20511;-77
2021/01/29 01:49:01;;;;;;;17.63;12.00;;;7.00;99.90;;;;;;5117938;28;20495;-78
2021/01/29 01:51:36;;;;;;;17.83;11.20;;;7.00;99.90;;;;;;5118440;28;20428;-77
2021/01/29 01:54:09;;;;;;;19.70;12.60;;;7.10;99.90;;;;;;5118413;28;20460;-77
2021/01/29 01:56:43;;;;;;;17.03;12.30;;;7.10;99.90;;;;;;5118538;28;20529;-77
2021/01/29 01:59:15;;;;;;;15.13;10.80;;;7.10;99.90;;;;;;5118409;28;20469;-77
2021/01/29 02:01:43;;;;;;;19.90;13.10;;;7.20;99.90;;;;;;5118530;28;20421;-77
2021/01/29 02:04:10;;;;;;;17.97;12.33;;;7.20;99.90;;;;;;5117013;28;20532;-77
2021/01/29 02:06:46;;;;;;;20.50;13.13;;;7.30;99.90;;;;;;5114270;28;20464;-78
2021/01/29 02:09:14;;;;;;;20.00;13.40;;;7.20;99.90;;;;;;5097595;28;20528;-78
2021/01/29 02:11:42;;;;;;;16.90;12.63;;;7.20;99.90;;;;;;5097805;28;20442;-77
2021/01/29 02:14:09;;;;;;;22.27;14.90;;;7.30;99.90;;;;;;5097554;28;20788;-77
2021/01/29 02:16:43;;;;;;;26.87;15.07;;;7.30;99.90;;;;;;5097813;28;20450;-78
2021/01/29 02:19:59;;;;;;;26.30;14.73;;;7.30;99.90;;;;;;5097273;28;20450;-77
2021/01/29 02:23:00;;;;;;;27.07;15.93;;;7.30;99.90;;;;;;5097184;28;20458;-77
2021/01/29 02:26:03;;;;;;;20.73;13.70;;;7.40;99.90;;;;;;5097554;28;20449;-77
2021/01/29 02:28:54;;;;;;;20.43;13.03;;;7.50;99.90;;;;;;5097262;28;20550;-77
2021/01/29 02:31:38;;;;;;;21.67;13.60;;;7.50;99.90;;;;;;5097244;28;20446;-77
2021/01/29 02:34:41;;;;;;;27.73;14.83;;;7.50;99.90;;;;;;5106163;28;20445;-77
2021/01/29 02:37:38;;;;;;;22.97;13.77;;;7.50;99.90;;;;;;5117286;28;20493;-77
2021/01/29 02:40:16;;;;;;;26.07;14.47;;;7.50;99.90;;;;;;5117430;28;20436;-77
2021/01/29 02:42:54;;;;;;;24.03;14.47;;;7.50;99.90;;;;;;5117407;28;20455;-77
2021/01/29 02:45:29;;;;;;;21.60;14.03;;;7.50;99.90;;;;;;5117461;28;20433;-77
2021/01/29 02:48:01;;;;;;;23.60;14.27;;;7.50;99.90;;;;;;5116541;28;20477;-77
2021/01/29 02:50:39;;;;;;;21.60;14.10;;;7.50;99.90;;;;;;5116779;28;20441;-76
2021/01/29 02:53:32;;;;;;;27.73;15.00;;;7.50;99.90;;;;;;5116874;28;20441;-76
2021/01/29 02:56:09;;;;;;;20.40;14.20;;;7.60;99.90;;;;;;5116995;28;20441;-77
2021/01/29 02:58:42;;;;;;;21.47;13.67;;;7.60;99.90;;;;;;5116648;28;20477;-76
2021/01/29 03:01:15;;;;;;;22.30;14.33;;;7.60;99.90;;;;;;5116938;28;20521;-77
2021/01/29 03:03:45;;;;;;;27.10;16.53;;;7.60;99.90;;;;;;5117088;28;20778;-77
2021/01/29 03:06:19;;;;;;;15.80;11.30;;;7.60;99.90;;;;;;5116366;28;20909;-77
2021/01/29 03:08:54;;;;;;;33.73;15.57;;;7.50;99.90;;;;;;5116855;28;20473;-77
2021/01/29 03:11:29;;;;;;;28.23;14.83;;;7.50;99.90;;;;;;5116630;28;20425;-77
2021/01/29 03:14:03;;;;;;;29.70;14.97;;;7.50;99.90;;;;;;5116350;28;20425;-79
2021/01/29 03:16:34;;;;;;;23.70;14.07;;;7.50;99.90;;;;;;5116430;28;20908;-77
2021/01/29 03:19:19;;;;;;;24.17;14.93;;;7.50;99.90;;;;;;5115970;28;20985;-77
2021/01/29 03:21:51;;;;;;;20.20;13.17;;;7.50;99.90;;;;;;5115750;28;20437;-77
2021/01/29 03:24:21;;;;;;;25.90;15.50;;;7.60;99.90;;;;;;5115532;28;20429;-77
2021/01/29 03:26:53;;;;;;;24.93;15.57;;;7.60;99.90;;;;;;5116022;28;20490;-78
2021/01/29 03:29:24;;;;;;;22.20;13.07;;;7.70;99.90;;;;;;5116314;28;20492;-76
2021/01/29 03:31:55;;;;;;;24.30;14.90;;;7.70;99.90;;;;;;5116336;28;20516;-76
2021/01/29 03:34:26;;;;;;;26.57;15.07;;;7.70;99.90;;;;;;5116337;28;20497;-76
2021/01/29 03:36:59;;;;;;;20.70;14.83;;;7.70;99.90;;;;;;5114883;28;21006;-81
2021/01/29 03:39:31;;;;;;;22.10;13.20;;;7.70;99.90;;;;;;5116163;28;20441;-76
2021/01/29 03:42:06;;;;;;;22.97;16.30;;;7.70;99.90;;;;;;5116012;28;20445;-76
2021/01/29 03:44:43;;;;;;;22.80;13.60;;;7.80;99.90;;;;;;5116064;28;20429;-76
2021/01/29 03:47:13;;;;;;;26.03;14.40;;;7.70;99.90;;;;;;5115683;28;20473;-76
2021/01/29 03:49:46;;;;;;;22.50;13.03;;;7.70;99.90;;;;;;5115767;28;20446;-76
2021/01/29 03:52:21;;;;;;;19.17;13.37;;;7.70;99.90;;;;;;5115765;28;20774;-76
2021/01/29 03:54:56;;;;;;;23.93;13.70;;;7.70;99.90;;;;;;5115819;28;20437;-76
2021/01/29 03:57:30;;;;;;;21.70;12.63;;;7.70;99.90;;;;;;5115408;28;20504;-79
2021/01/29 04:00:09;;;;;;;18.03;12.37;;;7.60;99.90;;;;;;5115390;28;20603;-79
2021/01/29 04:02:42;;;;;;;24.00;12.93;;;7.60;99.90;;;;;;5095629;28;20525;-77
2021/01/29 04:05:13;;;;;;;16.13;10.90;;;7.70;99.90;;;;;;5095152;28;20550;-78
2021/01/29 04:07:45;;;;;;;15.33;11.63;;;7.70;99.90;;;;;;5108559;28;20469;-78
2021/01/29 04:10:14;;;;;;;14.63;10.90;;;7.70;99.90;;;;;;5115029;28;20445;-78
2021/01/29 04:12:47;;;;;;;17.03;11.33;;;7.70;99.90;;;;;;5115556;28;20473;-78
2021/01/29 04:15:23;;;;;;;17.57;8.97;;;7.70;99.90;;;;;;5115067;28;20530;-78
2021/01/29 04:17:54;;;;;;;15.20;8.43;;;7.70;99.90;;;;;;5115685;28;20451;-78
2021/01/29 04:20:27;;;;;;;16.30;9.10;;;7.80;99.90;;;;;;5114829;28;20512;-80
2021/01/29 04:22:56;;;;;;;9.73;7.47;;;7.80;99.90;;;;;;5114314;28;20573;-78
2021/01/29 04:25:32;;;;;;;12.73;8.80;;;7.80;99.90;;;;;;5113067;28;20453;-78
2021/01/29 04:28:05;;;;;;;12.50;7.57;;;7.80;99.90;;;;;;5102549;28;21073;-83
2021/01/29 04:30:33;;;;;;;11.57;7.40;;;7.80;99.90;;;;;;5115549;28;20791;-78
2021/01/29 04:33:05;;;;;;;9.10;5.57;;;7.80;99.90;;;;;;5114991;28;20540;-80
2021/01/29 04:35:32;;;;;;;8.07;6.10;;;7.80;99.90;;;;;;5115086;28;20437;-78
2021/01/29 04:38:11;;;;;;;8.67;6.50;;;7.80;99.90;;;;;;5114645;28;20510;-81
2021/01/29 04:40:44;;;;;;;9.83;5.67;;;7.80;99.90;;;;;;5114775;28;20509;-77
2021/01/29 04:43:35;;;;;;;6.93;4.80;;;7.80;99.90;;;;;;5094335;28;20840;-78
2021/01/29 04:46:20;;;;;;;6.53;5.03;;;7.80;99.90;;;;;;5094065;28;20529;-78
2021/01/29 04:48:51;;;;;;;7.37;5.10;;;7.90;99.90;;;;;;5094229;28;20474;-78
2021/01/29 04:51:45;;;;;;;7.07;5.60;;;7.80;99.90;;;;;;5094779;28;20430;-78
2021/01/29 04:54:43;;;;;;;8.40;6.07;;;7.80;99.90;;;;;;5094721;28;20441;-78
2021/01/29 04:57:57;;;;;;;6.90;4.90;;;7.80;99.90;;;;;;5110076;28;20924;-78
2021/01/29 05:00:58;;;;;;;6.40;4.93;;;7.80;99.90;;;;;;5114574;28;20540;-78
2021/01/29 05:03:57;;;;;;;6.50;4.77;;;7.80;99.90;;;;;;5114901;28;20449;-78
2021/01/29 05:06:47;;;;;;;5.60;4.40;;;7.80;99.90;;;;;;5115163;28;20465;-78
2021/01/29 05:09:47;;;;;;;5.50;4.20;;;7.80;99.90;;;;;;5114548;28;20934;-78
2021/01/29 05:12:39;;;;;;;5.03;4.00;;;7.80;99.90;;;;;;5115000;28;20831;-78
2021/01/29 05:15:35;;;;;;;5.07;3.80;;;7.80;99.90;;;;;;5094692;28;20512;-79
2021/01/29 05:18:26;;;;;;;7.23;4.60;;;7.80;99.90;;;;;;5094509;28;20978;-79
2021/01/29 05:21:12;;;;;;;5.50;3.90;;;7.80;99.90;;;;;;5096400;28;20520;-78
2021/01/29 05:24:09;;;;;;;5.23;3.67;;;7.80;99.90;;;;;;5098828;28;20448;-78
2021/01/29 05:27:06;;;;;;;5.73;3.80;;;7.90;99.90;;;;;;5101327;28;20429;-78
2021/01/29 05:29:48;;;;;;;4.23;3.67;;;7.80;99.90;;;;;;5098867;28;20448;-77
2021/01/29 05:32:31;;;;;;;5.03;3.93;;;7.80;99.90;;;;;;5098608;28;20521;-78
2021/01/29 05:35:22;;;;;;;5.00;3.33;;;7.80;99.90;;;;;;5098672;28;20456;-78
2021/01/29 05:38:18;;;;;;;4.50;3.13;;;7.80;99.90;;;;;;5098230;28;20553;-77
2021/01/29 05:40:59;;;;;;;3.90;2.80;;;7.80;99.90;;;;;;5098415;28;20442;-78
2021/01/29 05:44:02;;;;;;;4.20;3.53;;;7.90;99.90;;;;;;5097978;28;20433;-77
2021/01/29 05:46:33;;;;;;;3.40;2.97;;;7.90;99.90;;;;;;5098302;28;20479;-77
2021/01/29 05:49:14;;;;;;;4.60;2.80;;;7.90;99.90;;;;;;5098039;28;20482;-82
2021/01/29 05:52:08;;;;;;;3.30;2.80;;;7.90;99.90;;;;;;5098383;28;20454;-77
2021/01/29 05:55:02;;;;;;;3.03;2.23;;;7.90;99.90;;;;;;5098071;28;20456;-77
2021/01/29 05:57:58;;;;;;;4.80;3.50;;;7.90;99.90;;;;;;5097886;28;20478;-77
2021/01/29 06:00:52;;;;;;;4.37;2.77;;;8.00;99.90;;;;;;5026211;28;20456;-77
2021/01/29 06:03:39;;;;;;;3.47;2.60;;;8.00;99.90;;;;;;5098021;28;20798;-78
2021/01/29 06:06:34;;;;;;;3.60;2.70;;;8.00;99.90;;;;;;5101616;28;20790;-78
2021/01/29 06:09:26;;;;;;;3.30;2.63;;;8.00;99.90;;;;;;5097794;28;20534;-77
2021/01/29 06:12:05;;;;;;;3.67;3.00;;;8.00;99.90;;;;;;5097465;28;20499;-77
2021/01/29 06:15:03;;;;;;;3.93;2.63;;;8.00;99.90;;;;;;5098006;28;20426;-77
2021/01/29 06:18:09;;;;;;;4.97;4.30;;;8.00;99.90;;;;;;5097790;28;20542;-78
2021/01/29 06:21:13;;;;;;;3.73;3.10;;;8.00;99.90;;;;;;5098083;28;20753;-78
2021/01/29 06:24:04;;;;;;;4.17;3.30;;;8.00;99.90;;;;;;5097354;28;20529;-79
2021/01/29 06:27:02;;;;;;;4.00;3.20;;;8.00;99.90;;;;;;5097243;28;20456;-78
2021/01/29 06:29:41;;;;;;;3.97;3.30;;;8.00;99.90;;;;;;5096800;28;20434;-78
2021/01/29 06:32:45;;;;;;;3.40;2.70;;;8.10;99.90;;;;;;5096325;28;20426;-79
2021/01/29 06:35:32;;;;;;;4.80;4.10;;;8.10;99.90;;;;;;5096897;28;20534;-78
2021/01/29 06:38:24;;;;;;;5.67;3.63;;;8.10;99.90;;;;;;5096944;28;20438;-78
2021/01/29 06:41:10;;;;;;;6.67;4.20;;;8.10;99.90;;;;;;5096968;28;20507;-78
2021/01/29 06:43:53;;;;;;;5.63;4.57;;;8.20;99.90;;;;;;5096981;28;20434;-78
2021/01/29 06:46:47;;;;;;;5.00;3.77;;;8.30;99.90;;;;;;5096725;28;20886;-77
2021/01/29 06:49:49;;;;;;;5.10;3.83;;;8.30;99.90;;;;;;5096563;28;20900;-78
2021/01/29 06:53:10;;;;;;;6.27;4.50;;;8.30;99.90;;;;;;5095627;28;20874;-78
2021/01/29 06:56:09;;;;;;;6.90;5.13;;;8.30;99.90;;;;;;5013762;28;20438;-78
2021/01/29 06:59:14;;;;;;;8.00;5.30;;;8.30;99.90;;;;;;5109746;28;20533;-77
2021/01/29 07:02:00;;;;;;;8.90;6.93;;;8.40;99.90;;;;;;5112417;28;20449;-77
2021/01/29 07:04:59;;;;;;;8.00;6.20;;;8.40;99.90;;;;;;5115986;28;20897;-77
2021/01/29 07:07:40;;;;;;;7.90;5.93;;;8.50;99.90;;;;;;5116039;28;20895;-78
2021/01/29 07:10:27;;;;;;;5.90;4.57;;;8.50;99.90;;;;;;5099135;28;20436;-85
2021/01/29 07:13:09;;;;;;;5.60;4.80;;;8.60;99.90;;;;;;5112255;28;20473;-78
2021/01/29 07:15:44;;;;;;;5.90;5.40;;;8.70;99.90;;;;;;5116032;28;20520;-79
2021/01/29 07:18:41;;;;;;;8.53;6.53;;;8.70;99.90;;;;;;5105185;28;20547;-78
2021/01/29 07:21:22;;;;;;;9.50;6.90;;;8.70;99.90;;;;;;5116302;28;20538;-80
2021/01/29 07:24:12;;;;;;;10.07;8.60;;;8.70;99.90;;;;;;5109403;28;20441;-78
2021/01/29 07:27:03;;;;;;;9.37;8.07;;;8.70;99.90;;;;;;5116867;28;20512;-78
2021/01/29 07:29:58;;;;;;;9.00;7.30;;;8.70;99.90;;;;;;5115469;28;20430;-78
2021/01/29 07:32:37;;;;;;;8.33;7.23;;;8.70;99.90;;;;;;5116629;28;20493;-79
2021/01/29 07:35:14;;;;;;;9.90;8.63;;;8.70;99.90;;;;;;5116158;28;20532;-83
2021/01/29 07:38:19;;;;;;;10.80;8.03;;;8.70;99.90;;;;;;5116547;28;20869;-78
2021/01/29 07:41:22;;;;;;;11.80;6.97;;;8.60;99.90;;;;;;5085604;28;20453;-77
2021/01/29 07:44:04;;;;;;;10.23;6.83;;;8.60;99.90;;;;;;5032407;28;20445;-79
2021/01/29 07:46:45;;;;;;;11.17;8.80;;;8.60;99.90;;;;;;5093646;28;20957;-79
2021/01/29 07:49:36;;;;;;;8.60;7.40;;;8.60;99.90;;;;;;5095488;28;20558;-78
2021/01/29 07:52:18;;;;;;;10.17;6.83;;;8.70;99.90;;;;;;5096770;28;20913;-78
2021/01/29 07:55:01;;;;;;;12.70;9.63;;;8.70;99.90;;;;;;5096442;28;20434;-78
2021/01/29 07:57:54;;;;;;;8.70;7.37;;;8.70;99.90;;;;;;5095386;28;20603;-79
2021/01/29 08:00:26;;;;;;;9.10;7.90;;;8.70;99.90;;;;;;5104929;28;20449;-78
2021/01/29 08:03:18;;;;;;;13.77;9.23;;;8.70;99.90;;;;;;5115711;28;20441;-78
2021/01/29 08:05:57;;;;;;;11.47;9.87;;;8.70;99.90;;;;;;5115618;28;20434;-78
2021/01/29 08:08:29;;;;;;;12.13;10.10;;;8.70;99.90;;;;;;5115336;28;20509;-78
2021/01/29 08:10:59;;;;;;;10.33;9.10;;;8.70;99.90;;;;;;5115379;28;20491;-78
2021/01/29 08:13:36;;;;;;;16.40;10.30;;;8.70;99.90;;;;;;5115054;28;20464;-78
2021/01/29 08:16:21;;;;;;;15.03;10.10;;;8.80;99.90;;;;;;5115636;28;20780;-78
2021/01/29 08:18:56;;;;;;;12.03;10.73;;;8.70;99.90;;;;;;5115070;28;20836;-78
2021/01/29 08:22:06;;;;;;;10.73;8.93;;;8.70;99.90;;;;;;5104714;28;20468;-81
2021/01/29 08:24:45;;;;;;;12.30;9.43;;;8.70;99.90;;;;;;5090589;28;20458;-78
2021/01/29 08:27:57;;;;;;;11.80;8.83;;;8.80;99.90;;;;;;5093929;28;20430;-80
2021/01/29 08:30:38;;;;;;;12.97;9.53;;;8.80;99.90;;;;;;5093712;28;20434;-79
2021/01/29 08:33:36;;;;;;;11.63;10.00;;;8.80;99.90;;;;;;5094727;28;20441;-78
2021/01/29 08:36:27;;;;;;;13.20;10.17;;;8.80;99.90;;;;;;5094560;28;20521;-79
2021/01/29 08:39:04;;;;;;;11.20;8.93;;;8.80;99.90;;;;;;5077175;28;20454;-78
2021/01/29 08:41:43;;;;;;;15.20;11.30;;;8.90;99.90;;;;;;5094397;28;20481;-78
2021/01/29 08:44:17;;;;;;;14.47;10.13;;;8.90;99.90;;;;;;5095152;28;20992;-80
2021/01/29 08:47:04;;;;;;;13.67;10.70;;;8.90;99.90;;;;;;5095172;28;20525;-78
2021/01/29 08:49:54;;;;;;;11.30;8.50;;;8.90;99.90;;;;;;5104450;28;20470;-79
2021/01/29 08:52:42;;;;;;;10.07;7.67;;;8.90;99.90;;;;;;5120944;28;20203;-79
2021/01/29 08:55:24;;;;;;;14.20;8.27;;;8.90;99.90;;;;;;5114860;28;20520;-86
2021/01/29 08:58:02;;;;;;;11.73;8.73;;;8.90;99.90;;;;;;5105822;28;20520;-79
2021/01/29 09:00:35;;;;;;;11.50;7.93;;;9.00;99.90;;;;;;5099441;28;20488;-79
2021/01/29 09:03:11;;;;;;;14.40;8.80;;;9.00;99.90;;;;;;5107343;28;20445;-79
2021/01/29 09:05:43;;;;;;;19.90;10.37;;;9.00;99.90;;;;;;5093540;28;20513;-79
2021/01/29 09:08:15;;;;;;;17.80;10.50;;;9.00;99.90;;;;;;5092788;28;20569;-84
2021/01/29 09:11:11;;;;;;;18.50;11.37;;;9.00;99.90;;;;;;5093727;28;20503;-79
2021/01/29 09:13:42;;;;;;;16.73;10.23;;;9.00;99.90;;;;;;5093448;28;20537;-78
2021/01/29 09:16:12;;;;;;;19.60;9.13;;;9.00;99.90;;;;;;5111647;28;20520;-79
2021/01/29 09:18:44;;;;;;;17.70;10.57;;;8.90;99.90;;;;;;5113541;28;20799;-79
2021/01/29 09:21:19;;;;;;;18.70;9.90;;;9.00;99.90;;;;;;5112883;28;20457;-81
2021/01/29 09:23:55;;;;;;;16.03;9.07;;;9.00;99.90;;;;;;5107026;28;20456;-79
2021/01/29 09:26:30;;;;;;;19.20;7.67;;;8.90;99.90;;;;;;5099069;28;20461;-79
2021/01/29 09:29:03;;;;;;;15.20;6.80;;;9.00;99.90;;;;;;5113721;28;20460;-78
2021/01/29 09:31:34;;;;;;;18.17;8.37;;;9.00;99.90;;;;;;5093014;28;20448;-78
2021/01/29 09:34:04;;;;;;;22.80;6.50;;;9.00;99.90;;;;;;5093620;28;20430;-80
2021/01/29 09:36:35;;;;;;;10.27;6.20;;;9.00;99.90;;;;;;5115009;28;20494;-80
2021/01/29 09:39:09;;;;;;;11.03;6.70;;;9.00;99.90;;;;;;5113762;28;20441;-80
2021/01/29 09:41:40;;;;;;;20.17;7.10;;;9.00;99.90;;;;;;5114094;28;20819;-81
2021/01/29 09:44:19;;;;;;;21.90;8.03;;;8.90;99.90;;;;;;5113980;28;20440;-80
2021/01/29 09:46:46;;;;;;;13.37;7.20;;;8.90;99.90;;;;;;5113949;28;20453;-78
2021/01/29 09:49:20;;;;;;;12.70;5.90;;;8.90;99.90;;;;;;5101586;28;20557;-78
2021/01/29 09:52:13;;;;;;;16.20;6.57;;;8.90;99.90;;;;;;5112550;28;20545;-78
2021/01/29 09:54:57;;;;;;;16.27;6.93;;;8.90;99.90;;;;;;5103221;28;20502;-78
2021/01/29 09:57:27;;;;;;;14.57;6.40;;;8.80;99.90;;;;;;5105358;28;20481;-77
2021/01/29 10:00:02;;;;;;;15.80;5.23;;;8.80;99.90;;;;;;5103589;28;20674;-78
2021/01/29 10:02:35;;;;;;;23.93;6.07;;;8.80;99.90;;;;;;5113822;28;20494;-77
2021/01/29 10:05:22;;;;;;;20.07;7.13;;;8.80;99.90;;;;;;5114225;28;20473;-77
2021/01/29 10:08:06;;;;;;;20.27;7.57;;;8.90;99.90;;;;;;5110280;28;21156;-77
2021/01/29 10:10:41;;;;;;;18.87;8.80;;;8.90;99.90;;;;;;5116351;28;20473;-78
2021/01/29 10:13:20;;;;;;;23.70;8.73;;;8.90;99.90;;;;;;5110746;28;20445;-77
2021/01/29 10:15:56;;;;;;;16.40;7.53;;;8.90;99.90;;;;;;5102692;28;20453;-77
2021/01/29 10:18:26;;;;;;;21.47;8.90;;;8.90;99.90;;;;;;5116446;28;20838;-81
2021/01/29 10:21:06;;;;;;;23.00;8.80;;;8.90;99.90;;;;;;5108860;28;20549;-78
2021/01/29 10:23:40;;;;;;;23.37;9.20;;;8.90;99.90;;;;;;5113099;28;20513;-79
2021/01/29 10:26:16;;;;;;;20.03;8.07;;;8.80;99.90;;;;;;5118105;28;20597;-79
2021/01/29 10:29:05;;;;;;;19.03;9.07;;;8.90;99.90;;;;;;5116628;28;20564;-81
2021/01/29 10:31:41;;;;;;;20.90;9.70;;;8.90;99.90;;;;;;5110220;28;20441;-79
2021/01/29 10:34:35;;;;;;;33.47;11.10;;;8.90;99.90;;;;;;5113234;28;20837;-79
2021/01/29 10:37:08;;;;;;;23.73;11.20;;;8.80;99.90;;;;;;5096326;28;20510;-79
2021/01/29 10:39:55;;;;;;;24.50;11.20;;;8.80;99.90;;;;;;5111464;28;20454;-79
2021/01/29 10:42:30;;;;;;;32.83;11.43;;;8.70;99.90;;;;;;5112313;28;20477;-79
2021/01/29 10:44:56;;;;;;;25.20;9.73;;;8.80;99.90;;;;;;5101082;28;20484;-80
2021/01/29 10:47:32;;;;;;;26.57;10.80;;;8.80;99.90;;;;;;5107603;28;20482;-79
2021/01/29 10:50:06;;;;;;;24.00;10.80;;;8.80;99.90;;;;;;5110821;28;20455;-80
2021/01/29 10:52:44;;;;;;;32.40;11.90;;;8.80;99.90;;;;;;5111099;28;20460;-79
2021/01/29 10:55:21;;;;;;;28.30;13.07;;;8.80;99.90;;;;;;5111131;28;20453;-80
2021/01/29 10:57:57;;;;;;;29.30;10.20;;;8.80;99.90;;;;;;5107203;28;20541;-79
2021/01/29 11:00:28;;;;;;;29.00;10.33;;;8.90;99.90;;;;;;5115493;28;20476;-80
2021/01/29 11:03:05;;;;;;;31.10;10.50;;;9.00;99.90;;;;;;5096195;28;20478;-79
2021/01/29 11:05:34;;;;;;;24.97;10.10;;;9.00;99.90;;;;;;5106453;28;20453;-79
2021/01/29 11:08:16;;;;;;;26.90;9.43;;;9.20;99.90;;;;;;5115918;28;20487;-79
2021/01/29 11:10:45;;;;;;;28.33;9.43;;;9.10;99.90;;;;;;5116034;28;20445;-79
2021/01/29 11:13:20;;;;;;;29.00;9.90;;;9.10;99.90;;;;;;5115237;28;20978;-80
2021/01/29 11:15:55;;;;;;;29.57;9.67;;;9.20;99.90;;;;;;5115800;28;20445;-80
2021/01/29 11:18:27;;;;;;;36.20;9.27;;;9.20;99.90;;;;;;5102247;28;20449;-80
2021/01/29 11:21:05;;;;;;;22.30;7.50;;;9.20;99.90;;;;;;5113534;28;20951;-79
2021/01/29 11:23:39;;;;;;;27.00;9.37;;;9.40;99.90;;;;;;5114066;28;20449;-81
2021/01/29 11:26:13;;;;;;;23.07;8.63;;;9.50;99.90;;;;;;5106033;28;20474;-79
2021/01/29 11:28:56;;;;;;;22.03;8.07;;;9.50;99.90;;;;;;5111085;28;20477;-78
2021/01/29 11:31:39;;;;;;;24.03;8.33;;;9.50;99.90;;;;;;5101342;28;20486;-79
2021/01/29 11:34:19;;;;;;;27.57;8.37;;;9.50;99.90;;;;;;5107709;28;20545;-78
2021/01/29 11:36:54;;;;;;;30.23;9.67;;;9.60;99.90;;;;;;5111770;28;20466;-78
2021/01/29 11:39:29;;;;;;;24.67;7.03;;;9.60;99.90;;;;;;5114556;28;20504;-77
2021/01/29 11:42:02;;;;;;;19.33;6.70;;;9.60;99.90;;;;;;5111213;28;20470;-77
2021/01/29 11:44:37;;;;;;;24.40;7.27;;;9.60;99.90;;;;;;5114534;28;20465;-77
2021/01/29 11:47:10;;;;;;;25.63;7.77;;;9.60;99.90;;;;;;5109517;28;20536;-77
2021/01/29 11:49:48;;;;;;;15.90;6.43;;;9.60;99.90;;;;;;5102676;28;20524;-77
2021/01/29 11:52:24;;;;;;;25.33;9.73;;;9.60;99.90;;;;;;5107311;28;20445;-79
2021/01/29 11:54:56;;;;;;;22.53;6.30;;;9.70;99.90;;;;;;5109849;28;20451;-78
2021/01/29 11:57:33;;;;;;;15.60;7.63;;;9.70;99.90;;;;;;5108670;28;20485;-78
2021/01/29 12:00:08;;;;;;;27.50;7.87;;;9.80;99.90;;;;;;5113959;28;20520;-77
2021/01/29 12:02:39;;;;;;;18.37;5.80;;;9.80;99.90;;;;;;5113546;28;20439;-79
2021/01/29 12:05:19;;;;;;;19.20;6.53;;;9.90;99.90;;;;;;5111264;28;20461;-76
2021/01/29 12:07:50;;;;;;;24.43;6.10;;;9.90;99.90;;;;;;5113637;28;20437;-77
2021/01/29 12:10:25;;;;;;;23.07;5.37;;;10.00;99.90;;;;;;5110094;28;20461;-84
2021/01/29 12:12:55;;;;;;;15.83;6.10;;;10.10;99.90;;;;;;5113283;28;20536;-77
2021/01/29 12:15:26;;;;;;;30.87;6.80;;;10.30;99.90;;;;;;5114350;28;20441;-77
2021/01/29 12:17:56;;;;;;;18.77;5.77;;;11.10;99.90;;;;;;5107961;28;20445;-77
2021/01/29 12:20:28;;;;;;;13.27;5.37;;;11.30;99.90;;;;;;5114485;28;20449;-77
2021/01/29 12:23:07;;;;;;;17.10;4.33;;;11.70;99.90;;;;;;5115565;28;20449;-77
2021/01/29 12:26:00;;;;;;;14.63;5.20;;;11.40;99.90;;;;;;5111123;28;20611;-77
2021/01/29 12:28:35;;;;;;;14.70;4.40;;;11.20;99.90;;;;;;5097732;28;20525;-77
2021/01/29 12:31:15;;;;;;;21.30;6.37;;;10.90;99.90;;;;;;5093507;28;20426;-80
2021/01/29 12:33:49;;;;;;;17.47;6.63;;;10.40;99.90;;;;;;5098476;28;20536;-77
2021/01/29 12:36:20;;;;;;;16.47;5.93;;;10.10;99.90;;;;;;5093918;28;20466;-83
2021/01/29 12:38:54;;;;;;;15.33;7.10;;;10.10;99.90;;;;;;5104349;28;20456;-79
2021/01/29 12:41:28;;;;;;;21.30;7.70;;;10.00;99.90;;;;;;5092673;28;20537;-83
2021/01/29 12:44:24;;;;;;;22.90;8.53;;;9.80;99.90;;;;;;5093070;28;20433;-79
2021/01/29 12:46:58;;;;;;;19.50;8.97;;;9.80;99.90;;;;;;5093240;28;20549;-79
2021/01/29 12:49:35;;;;;;;20.93;8.37;;;10.00;99.90;;;;;;5092153;28;20553;-78
2021/01/29 12:52:06;;;;;;;24.63;8.53;;;10.10;99.90;;;;;;5093456;28;20798;-80
2021/01/29 12:54:42;;;;;;;18.30;8.77;;;10.20;99.90;;;;;;5092534;28;20438;-78
2021/01/29 12:57:14;;;;;;;24.87;10.80;;;10.00;99.90;;;;;;5092885;28;20997;-78
2021/01/29 12:59:50;;;;;;;29.20;9.13;;;10.10;99.90;;;;;;5092925;28;20442;-77
2021/01/29 13:02:53;;;;;;;16.93;7.70;;;10.10;99.90;;;;;;5094066;28;20862;-82
2021/01/29 13:05:29;;;;;;;15.77;7.67;;;10.00;99.90;;;;;;5041590;28;20862;-85
2021/01/29 13:08:15;;;;;;;22.70;8.47;;;9.90;99.90;;;;;;5093904;28;20448;-78
2021/01/29 13:10:46;;;;;;;25.10;9.23;;;9.80;99.90;;;;;;5092931;28;20430;-78
2021/01/29 13:13:23;;;;;;;32.50;9.37;;;9.80;99.90;;;;;;5097307;28;20438;-79
2021/01/29 13:16:01;;;;;;;25.77;8.97;;;9.80;99.90;;;;;;5113903;28;20504;-79
2021/01/29 13:18:43;;;;;;;22.47;7.90;;;9.80;99.90;;;;;;5113342;28;20448;-78
2021/01/29 13:21:19;;;;;;;29.07;10.40;;;9.80;99.90;;;;;;5114328;28;20445;-79
2021/01/29 13:23:48;;;;;;;19.70;9.00;;;9.80;99.90;;;;;;5114138;28;20449;-80
2021/01/29 13:26:29;;;;;;;26.43;12.30;;;9.70;99.90;;;;;;5114129;28;20450;-79
2021/01/29 13:29:01;;;;;;;21.93;9.80;;;9.60;99.90;;;;;;5114356;28;20956;-80
2021/01/29 13:31:32;;;;;;;18.07;8.90;;;9.60;99.90;;;;;;5113829;28;20442;-79
2021/01/29 13:34:02;;;;;;;18.33;8.60;;;9.60;99.90;;;;;;5113851;28;20446;-77
2021/01/29 13:36:32;;;;;;;28.60;9.70;;;9.60;99.90;;;;;;5113666;28;20830;-79
2021/01/29 13:39:16;;;;;;;23.27;8.73;;;9.70;99.90;;;;;;5113568;28;20544;-79
2021/01/29 13:41:49;;;;;;;16.50;7.20;;;9.90;99.90;;;;;;5112678;28;20495;-84
2021/01/29 13:44:33;;;;;;;21.77;8.20;;;9.90;99.90;;;;;;5113028;27;20445;-78